This is the latest recevied weather packets stored in our database for station/object VE3ZEB-1. If no packets are shown the sender has not sent any weather packets the latest 10 day(s).
| Time | Temp. | Humidity | Pressure | Rain* | Wind** | Luminosity | Snow |
|---|---|---|---|---|---|---|---|
| 1777788048 | 1.11° C | 69% | 679.1 hPa | 0 mm | - | 0 W/m² | - |
| 1777785029 | 1.11° C | 68% | 679.1 hPa | 0 mm | - | 0 W/m² | - |
| 1777783849 | 1.11° C | 68% | 679.1 hPa | 0 mm | - | 0 W/m² | - |
| 1777782050 | 1.11° C | 65% | 679.2 hPa | 0 mm | - | 0 W/m² | - |
| 1777773631 | 3.33° C | 53% | 679.2 hPa | 0 mm | - | 0 W/m² | - |
| 1777771232 | 4.44° C | 51% | 679.3 hPa | 0 mm | - | 0 W/m² | - |
| 1777770632 | 5° C | 49% | 679.3 hPa | 0 mm | - | 0 W/m² | - |
| 1777770072 | 5° C | 48% | 679.3 hPa | 0 mm | - | 0 W/m² | - |
| 1777768833 | 5.56° C | 47% | 679.3 hPa | 0 mm | - | 0 W/m² | - |
| 1777763418 | 8.33° C | 36% | 679.5 hPa | 0 mm | - | 47 W/m² | - |
| 1777762818 | 8.89° C | 36% | 679.5 hPa | 0 mm | - | 62 W/m² | - |
| 1777761619 | 9.44° C | 36% | 679.5 hPa | 0 mm | - | 114 W/m² | - |
| 1777761019 | 9.44° C | 35% | 679.5 hPa | 0 mm | - | 207 W/m² | - |
| 1777760419 | 10° C | 35% | 679.5 hPa | 0 mm | - | 217 W/m² | - |
| 1777759219 | 10.56° C | 32% | 679.5 hPa | 0 mm | - | 179 W/m² | - |
| 1777758619 | 10.56° C | 33% | 679.5 hPa | 0 mm | - | 180 W/m² | - |
| 1777757420 | 10.56° C | 33% | 679.5 hPa | 0 mm | - | 116 W/m² | - |
| 1777756220 | 11.11° C | 34% | 679.5 hPa | 0 mm | - | 244 W/m² | - |
| 1777753261 | 10.56° C | 39% | 679.5 hPa | 0 mm | - | 387 W/m² | - |
| 1777750222 | 10.56° C | 41% | 679.5 hPa | 0 mm | - | 292 W/m² | - |
| 1777749021 | 10.56° C | 42% | 679.5 hPa | 0 mm | - | 307 W/m² | - |
| 1777747822 | 11.11° C | 43% | 679.5 hPa | 0 mm | - | 402 W/m² | - |
| 1777746622 | 11.11° C | 43% | 679.5 hPa | 0 mm | - | 478 W/m² | - |
| 1777744243 | 11.11° C | 43% | 679.5 hPa | 0 mm | - | 458 W/m² | - |
| 1777734625 | 11.67° C | 48% | 679.5 hPa | 0 mm | - | 660 W/m² | - |
* Rain latest hour (hover to see other rain measurements)
** Current wind speed in m/s (hover to see current wind gust speed)